sensor_id;sensor_type;location;lat;lon;timestamp;pressure;altitude;pressure_sealevel;temperature;humidity
45357;BME280;31092;51.924;21.448;2023-04-25T00:01:54;99056.28;;;10.97;100.00
45357;BME280;31092;51.924;21.448;2023-04-25T00:04:21;99051.06;;;10.89;100.00
45357;BME280;31092;51.924;21.448;2023-04-25T00:06:47;99045.63;;;10.83;100.00
45357;BME280;31092;51.924;21.448;2023-04-25T00:09:12;99052.63;;;10.77;100.00
45357;BME280;31092;51.924;21.448;2023-04-25T00:11:37;99048.59;;;10.66;100.00
45357;BME280;31092;51.924;21.448;2023-04-25T00:14:03;99043.59;;;10.57;100.00
45357;BME280;31092;51.924;21.448;2023-04-25T00:16:29;99044.94;;;10.46;100.00
45357;BME280;31092;51.924;21.448;2023-04-25T00:18:58;99037.00;;;10.38;100.00
45357;BME280;31092;51.924;21.448;2023-04-25T00:21:23;99045.00;;;10.31;100.00
45357;BME280;31092;51.924;21.448;2023-04-25T00:23:49;99042.78;;;10.20;100.00
45357;BME280;31092;51.924;21.448;2023-04-25T00:26:14;99034.78;;;10.05;100.00
45357;BME280;31092;51.924;21.448;2023-04-25T00:28:40;99037.72;;;9.89;100.00
45357;BME280;31092;51.924;21.448;2023-04-25T00:31:05;99029.81;;;9.66;100.00
45357;BME280;31092;51.924;21.448;2023-04-25T00:36:04;99024.13;;;9.54;100.00
45357;BME280;31092;51.924;21.448;2023-04-25T00:38:30;99018.38;;;9.57;100.00
45357;BME280;31092;51.924;21.448;2023-04-25T00:40:55;99017.00;;;9.46;100.00
45357;BME280;31092;51.924;21.448;2023-04-25T00:43:23;99016.47;;;9.36;100.00
45357;BME280;31092;51.924;21.448;2023-04-25T00:45:48;99010.81;;;9.31;100.00
45357;BME280;31092;51.924;21.448;2023-04-25T00:48:15;99014.06;;;9.26;100.00
45357;BME280;31092;51.924;21.448;2023-04-25T00:50:43;99007.78;;;9.19;100.00
45357;BME280;31092;51.924;21.448;2023-04-25T00:53:14;99006.03;;;9.11;100.00
45357;BME280;31092;51.924;21.448;2023-04-25T00:55:39;99011.09;;;9.06;100.00
45357;BME280;31092;51.924;21.448;2023-04-25T00:58:05;99008.78;;;9.03;100.00
45357;BME280;31092;51.924;21.448;2023-04-25T01:00:30;99017.97;;;8.94;100.00
45357;BME280;31092;51.924;21.448;2023-04-25T01:02:56;99007.50;;;8.84;100.00
45357;BME280;31092;51.924;21.448;2023-04-25T01:05:21;99014.81;;;8.76;100.00
45357;BME280;31092;51.924;21.448;2023-04-25T01:07:47;99015.75;;;8.68;100.00
45357;BME280;31092;51.924;21.448;2023-04-25T01:10:12;99005.28;;;8.58;100.00
45357;BME280;31092;51.924;21.448;2023-04-25T01:12:37;99012.66;;;8.56;100.00
45357;BME280;31092;51.924;21.448;2023-04-25T01:15:03;99005.72;;;8.62;100.00
45357;BME280;31092;51.924;21.448;2023-04-25T01:17:28;99010.91;;;8.63;100.00
45357;BME280;31092;51.924;21.448;2023-04-25T01:19:54;99004.81;;;8.55;100.00
45357;BME280;31092;51.924;21.448;2023-04-25T01:22:19;99000.97;;;8.49;100.00
45357;BME280;31092;51.924;21.448;2023-04-25T01:24:46;98995.34;;;8.44;100.00
45357;BME280;31092;51.924;21.448;2023-04-25T01:27:12;98995.25;;;8.37;100.00
45357;BME280;31092;51.924;21.448;2023-04-25T01:29:37;99005.81;;;8.31;100.00
45357;BME280;31092;51.924;21.448;2023-04-25T01:32:03;98995.88;;;8.16;100.00
45357;BME280;31092;51.924;21.448;2023-04-25T01:34:29;98992.97;;;8.03;100.00
45357;BME280;31092;51.924;21.448;2023-04-25T01:36:54;98986.03;;;7.94;100.00
45357;BME280;31092;51.924;21.448;2023-04-25T01:39:20;98990.72;;;7.92;100.00
45357;BME280;31092;51.924;21.448;2023-04-25T01:41:46;98989.66;;;8.01;100.00
45357;BME280;31092;51.924;21.448;2023-04-25T01:44:12;98988.34;;;7.97;100.00
45357;BME280;31092;51.924;21.448;2023-04-25T01:46:37;98988.41;;;7.89;100.00
45357;BME280;31092;51.924;21.448;2023-04-25T01:49:03;98998.28;;;7.88;100.00
45357;BME280;31092;51.924;21.448;2023-04-25T01:51:28;98987.69;;;7.95;100.00
45357;BME280;31092;51.924;21.448;2023-04-25T01:53:55;98989.59;;;8.09;100.00
45357;BME280;31092;51.924;21.448;2023-04-25T01:56:20;98995.44;;;8.28;100.00
45357;BME280;31092;51.924;21.448;2023-04-25T01:58:46;98987.00;;;8.39;100.00
45357;BME280;31092;51.924;21.448;2023-04-25T02:01:11;98994.22;;;8.53;100.00
45357;BME280;31092;51.924;21.448;2023-04-25T02:03:36;98994.16;;;8.61;100.00
45357;BME280;31092;51.924;21.448;2023-04-25T02:06:02;98989.06;;;8.67;100.00
45357;BME280;31092;51.924;21.448;2023-04-25T02:08:27;98997.31;;;8.65;100.00
45357;BME280;31092;51.924;21.448;2023-04-25T02:10:52;98983.44;;;8.61;100.00
45357;BME280;31092;51.924;21.448;2023-04-25T02:13:18;98989.53;;;8.55;100.00
45357;BME280;31092;51.924;21.448;2023-04-25T02:15:43;98993.03;;;8.56;100.00
45357;BME280;31092;51.924;21.448;2023-04-25T02:18:08;98991.84;;;8.58;100.00
45357;BME280;31092;51.924;21.448;2023-04-25T02:20:35;98992.94;;;8.64;100.00
45357;BME280;31092;51.924;21.448;2023-04-25T02:23:01;98991.59;;;8.68;100.00
45357;BME280;31092;51.924;21.448;2023-04-25T02:25:26;98993.41;;;8.68;100.00
45357;BME280;31092;51.924;21.448;2023-04-25T02:27:52;99002.03;;;8.63;100.00
45357;BME280;31092;51.924;21.448;2023-04-25T02:30:17;98990.56;;;8.54;100.00
45357;BME280;31092;51.924;21.448;2023-04-25T02:32:42;98988.94;;;8.45;100.00
45357;BME280;31092;51.924;21.448;2023-04-25T02:35:08;98993.53;;;8.36;100.00
45357;BME280;31092;51.924;21.448;2023-04-25T02:37:34;98998.13;;;8.28;100.00
45357;BME280;31092;51.924;21.448;2023-04-25T02:40:00;98993.88;;;8.19;100.00
45357;BME280;31092;51.924;21.448;2023-04-25T02:42:26;98987.63;;;8.03;100.00
45357;BME280;31092;51.924;21.448;2023-04-25T02:44:51;98991.38;;;7.94;100.00
45357;BME280;31092;51.924;21.448;2023-04-25T02:47:16;98991.63;;;7.84;100.00
45357;BME280;31092;51.924;21.448;2023-04-25T02:49:42;98987.88;;;7.71;100.00
45357;BME280;31092;51.924;21.448;2023-04-25T02:52:07;98991.16;;;7.58;100.00
45357;BME280;31092;51.924;21.448;2023-04-25T02:54:32;98988.81;;;7.55;100.00
45357;BME280;31092;51.924;21.448;2023-04-25T02:56:58;98987.25;;;7.60;100.00
45357;BME280;31092;51.924;21.448;2023-04-25T02:59:23;98985.88;;;7.64;100.00
45357;BME280;31092;51.924;21.448;2023-04-25T03:01:48;98986.56;;;7.66;100.00
45357;BME280;31092;51.924;21.448;2023-04-25T03:04:14;98990.72;;;7.69;100.00
45357;BME280;31092;51.924;21.448;2023-04-25T03:06:40;98995.41;;;7.67;100.00
45357;BME280;31092;51.924;21.448;2023-04-25T03:09:05;98992.25;;;7.63;100.00
45357;BME280;31092;51.924;21.448;2023-04-25T03:11:30;98999.00;;;7.59;100.00
45357;BME280;31092;51.924;21.448;2023-04-25T03:13:56;98987.50;;;7.51;100.00
45357;BME280;31092;51.924;21.448;2023-04-25T03:16:21;98985.34;;;7.46;100.00
45357;BME280;31092;51.924;21.448;2023-04-25T03:18:47;98994.38;;;7.45;100.00
45357;BME280;31092;51.924;21.448;2023-04-25T03:21:12;98996.41;;;7.43;100.00
45357;BME280;31092;51.924;21.448;2023-04-25T03:23:37;98998.78;;;7.38;100.00
45357;BME280;31092;51.924;21.448;2023-04-25T03:26:03;98995.28;;;7.37;100.00
45357;BME280;31092;51.924;21.448;2023-04-25T03:28:28;98999.81;;;7.37;100.00
45357;BME280;31092;51.924;21.448;2023-04-25T03:30:53;98999.63;;;7.38;100.00
45357;BME280;31092;51.924;21.448;2023-04-25T03:33:19;98994.25;;;7.38;100.00
45357;BME280;31092;51.924;21.448;2023-04-25T03:35:44;98998.78;;;7.38;100.00
45357;BME280;31092;51.924;21.448;2023-04-25T03:38:10;98997.28;;;7.35;100.00
45357;BME280;31092;51.924;21.448;2023-04-25T03:40:35;99000.97;;;7.34;100.00
45357;BME280;31092;51.924;21.448;2023-04-25T03:43:01;99007.50;;;7.32;100.00
45357;BME280;31092;51.924;21.448;2023-04-25T03:45:26;99009.34;;;7.31;100.00
45357;BME280;31092;51.924;21.448;2023-04-25T03:47:51;99008.66;;;7.37;100.00
45357;BME280;31092;51.924;21.448;2023-04-25T03:50:17;99013.00;;;7.38;100.00
45357;BME280;31092;51.924;21.448;2023-04-25T03:52:42;99017.03;;;7.34;100.00
45357;BME280;31092;51.924;21.448;2023-04-25T03:55:08;99015.19;;;7.35;100.00
45357;BME280;31092;51.924;21.448;2023-04-25T03:57:33;99017.34;;;7.39;100.00
45357;BME280;31092;51.924;21.448;2023-04-25T03:59:58;99021.03;;;7.38;100.00
45357;BME280;31092;51.924;21.448;2023-04-25T04:02:24;99028.06;;;7.39;100.00
45357;BME280;31092;51.924;21.448;2023-04-25T04:04:49;99019.69;;;7.42;100.00
45357;BME280;31092;51.924;21.448;2023-04-25T04:07:15;99022.34;;;7.51;100.00
45357;BME280;31092;51.924;21.448;2023-04-25T04:09:40;99029.50;;;7.58;100.00
45357;BME280;31092;51.924;21.448;2023-04-25T04:12:05;99029.09;;;7.70;100.00
45357;BME280;31092;51.924;21.448;2023-04-25T04:14:31;99028.84;;;7.79;100.00
45357;BME280;31092;51.924;21.448;2023-04-25T04:16:56;99035.66;;;7.90;100.00
45357;BME280;31092;51.924;21.448;2023-04-25T04:19:21;99037.44;;;7.98;100.00
45357;BME280;31092;51.924;21.448;2023-04-25T04:21:47;99030.72;;;8.02;100.00
45357;BME280;31092;51.924;21.448;2023-04-25T04:24:12;99034.88;;;8.04;100.00
45357;BME280;31092;51.924;21.448;2023-04-25T04:26:37;99041.72;;;8.07;100.00
45357;BME280;31092;51.924;21.448;2023-04-25T04:29:03;99035.44;;;8.14;100.00
45357;BME280;31092;51.924;21.448;2023-04-25T04:31:29;99037.91;;;8.24;100.00
45357;BME280;31092;51.924;21.448;2023-04-25T04:33:55;99038.69;;;8.33;100.00
45357;BME280;31092;51.924;21.448;2023-04-25T04:36:20;99034.28;;;8.40;100.00
45357;BME280;31092;51.924;21.448;2023-04-25T04:38:47;99030.50;;;8.49;100.00
45357;BME280;31092;51.924;21.448;2023-04-25T04:41:12;99037.47;;;8.58;100.00
45357;BME280;31092;51.924;21.448;2023-04-25T04:43:37;99037.38;;;8.67;100.00
45357;BME280;31092;51.924;21.448;2023-04-25T04:46:04;99041.66;;;8.76;100.00
45357;BME280;31092;51.924;21.448;2023-04-25T04:48:33;99038.88;;;8.84;100.00
45357;BME280;31092;51.924;21.448;2023-04-25T04:50:59;99035.94;;;8.94;100.00
45357;BME280;31092;51.924;21.448;2023-04-25T04:53:25;99040.84;;;9.05;100.00
45357;BME280;31092;51.924;21.448;2023-04-25T04:55:50;99043.25;;;9.15;100.00
45357;BME280;31092;51.924;21.448;2023-04-25T04:58:16;99041.28;;;9.23;100.00
45357;BME280;31092;51.924;21.448;2023-04-25T05:00:41;99046.75;;;9.30;100.00
45357;BME280;31092;51.924;21.448;2023-04-25T05:03:07;99039.63;;;9.37;100.00
45357;BME280;31092;51.924;21.448;2023-04-25T05:05:32;99050.91;;;9.47;100.00
45357;BME280;31092;51.924;21.448;2023-04-25T05:07:57;99039.88;;;9.57;100.00
45357;BME280;31092;51.924;21.448;2023-04-25T05:10:23;99036.25;;;9.65;100.00
45357;BME280;31092;51.924;21.448;2023-04-25T05:12:48;99038.59;;;9.74;100.00
45357;BME280;31092;51.924;21.448;2023-04-25T05:15:13;99038.13;;;9.86;100.00
45357;BME280;31092;51.924;21.448;2023-04-25T05:17:39;99037.16;;;9.93;100.00
45357;BME280;31092;51.924;21.448;2023-04-25T05:20:05;99044.28;;;10.01;100.00
45357;BME280;31092;51.924;21.448;2023-04-25T05:22:31;99043.13;;;10.10;100.00
45357;BME280;31092;51.924;21.448;2023-04-25T05:24:56;99042.63;;;10.21;100.00
45357;BME280;31092;51.924;21.448;2023-04-25T05:27:21;99041.31;;;10.32;100.00
45357;BME280;31092;51.924;21.448;2023-04-25T05:29:47;99041.16;;;10.40;100.00
45357;BME280;31092;51.924;21.448;2023-04-25T05:32:12;99040.56;;;10.45;100.00
45357;BME280;31092;51.924;21.448;2023-04-25T05:34:37;99040.84;;;10.50;100.00
45357;BME280;31092;51.924;21.448;2023-04-25T05:37:03;99047.50;;;10.54;100.00
45357;BME280;31092;51.924;21.448;2023-04-25T05:39:28;99035.31;;;10.58;100.00
45357;BME280;31092;51.924;21.448;2023-04-25T05:41:53;99041.13;;;10.62;100.00
45357;BME280;31092;51.924;21.448;2023-04-25T05:44:19;99043.22;;;10.66;100.00
45357;BME280;31092;51.924;21.448;2023-04-25T05:46:45;99045.53;;;10.69;100.00
45357;BME280;31092;51.924;21.448;2023-04-25T05:49:10;99048.03;;;10.71;100.00
45357;BME280;31092;51.924;21.448;2023-04-25T05:51:35;99047.00;;;10.72;100.00
45357;BME280;31092;51.924;21.448;2023-04-25T05:54:01;99052.84;;;10.75;100.00
45357;BME280;31092;51.924;21.448;2023-04-25T05:56:26;99049.09;;;10.76;100.00
45357;BME280;31092;51.924;21.448;2023-04-25T05:58:51;99048.06;;;10.77;100.00
45357;BME280;31092;51.924;21.448;2023-04-25T06:01:17;99044.38;;;10.78;100.00
45357;BME280;31092;51.924;21.448;2023-04-25T06:03:42;99054.31;;;10.78;100.00
45357;BME280;31092;51.924;21.448;2023-04-25T06:06:08;99054.31;;;10.78;100.00
45357;BME280;31092;51.924;21.448;2023-04-25T06:08:34;99051.63;;;10.78;100.00
45357;BME280;31092;51.924;21.448;2023-04-25T06:10:59;99057.00;;;10.78;100.00
45357;BME280;31092;51.924;21.448;2023-04-25T06:13:25;99058.66;;;10.79;100.00
45357;BME280;31092;51.924;21.448;2023-04-25T06:15:50;99056.78;;;10.79;100.00
45357;BME280;31092;51.924;21.448;2023-04-25T06:18:16;99057.63;;;10.80;100.00
45357;BME280;31092;51.924;21.448;2023-04-25T06:20:41;99057.63;;;10.80;100.00
45357;BME280;31092;51.924;21.448;2023-04-25T06:23:06;99052.22;;;10.80;100.00
45357;BME280;31092;51.924;21.448;2023-04-25T06:25:32;99054.94;;;10.80;100.00
45357;BME280;31092;51.924;21.448;2023-04-25T06:27:57;99048.06;;;10.77;100.00
45357;BME280;31092;51.924;21.448;2023-04-25T06:30:22;99048.06;;;10.77;100.00
45357;BME280;31092;51.924;21.448;2023-04-25T06:32:50;99045.59;;;10.76;100.00
45357;BME280;31092;51.924;21.448;2023-04-25T06:35:16;99047.00;;;10.72;100.00
45357;BME280;31092;51.924;21.448;2023-04-25T06:37:41;99043.66;;;10.70;100.00
45357;BME280;31092;51.924;21.448;2023-04-25T06:40:07;99048.22;;;10.69;100.00
45357;BME280;31092;51.924;21.448;2023-04-25T06:42:32;99049.06;;;10.70;100.00
45357;BME280;31092;51.924;21.448;2023-04-25T06:44:57;99048.22;;;10.69;100.00
45357;BME280;31092;51.924;21.448;2023-04-25T06:47:23;99056.31;;;10.69;100.00
45357;BME280;31092;51.924;21.448;2023-04-25T06:49:48;99052.34;;;10.65;100.00
45357;BME280;31092;51.924;21.448;2023-04-25T06:52:13;99050.03;;;10.62;100.00
45357;BME280;31092;51.924;21.448;2023-04-25T06:54:39;99053.56;;;10.63;100.00
45357;BME280;31092;51.924;21.448;2023-04-25T06:57:04;99051.69;;;10.63;100.00
45357;BME280;31092;51.924;21.448;2023-04-25T06:59:30;99060.22;;;10.67;100.00
45357;BME280;31092;51.924;21.448;2023-04-25T07:01:55;99058.16;;;10.69;100.00
45357;BME280;31092;51.924;21.448;2023-04-25T07:04:20;99062.13;;;10.73;100.00
45357;BME280;31092;51.924;21.448;2023-04-25T07:06:46;99056.16;;;10.77;100.00
45357;BME280;31092;51.924;21.448;2023-04-25T07:09:13;99062.84;;;10.82;100.00
45357;BME280;31092;51.924;21.448;2023-04-25T07:11:38;99059.72;;;10.85;100.00
45357;BME280;31092;51.924;21.448;2023-04-25T07:14:03;99056.84;;;10.86;100.00
45357;BME280;31092;51.924;21.448;2023-04-25T07:16:29;99059.53;;;10.86;100.00
45357;BME280;31092;51.924;21.448;2023-04-25T07:18:54;99064.97;;;10.93;100.00
45357;BME280;31092;51.924;21.448;2023-04-25T07:21:20;99057.06;;;10.91;100.00
45357;BME280;31092;51.924;21.448;2023-04-25T07:23:45;99064.72;;;10.88;100.00
45357;BME280;31092;51.924;21.448;2023-04-25T07:26:11;99058.50;;;10.87;100.00
45357;BME280;31092;51.924;21.448;2023-04-25T07:28:36;99059.59;;;10.93;100.00
45357;BME280;31092;51.924;21.448;2023-04-25T07:31:02;99062.47;;;10.91;100.00
45357;BME280;31092;51.924;21.448;2023-04-25T07:33:27;99062.03;;;10.88;100.00
45357;BME280;31092;51.924;21.448;2023-04-25T07:35:53;99068.25;;;10.88;100.00
45357;BME280;31092;51.924;21.448;2023-04-25T07:38:18;99068.06;;;10.90;100.00
45357;BME280;31092;51.924;21.448;2023-04-25T07:40:44;99067.63;;;10.86;100.00
45357;BME280;31092;51.924;21.448;2023-04-25T07:43:09;99081.69;;;10.82;100.00
45357;BME280;31092;51.924;21.448;2023-04-25T07:45:37;99076.03;;;10.76;100.00
45357;BME280;31092;51.924;21.448;2023-04-25T07:48:02;99074.38;;;10.75;100.00
45357;BME280;31092;51.924;21.448;2023-04-25T07:50:28;99071.03;;;10.73;100.00
45357;BME280;31092;51.924;21.448;2023-04-25T07:52:53;99072.28;;;10.71;100.00
45357;BME280;31092;51.924;21.448;2023-04-25T07:55:18;99075.97;;;10.70;100.00
45357;BME280;31092;51.924;21.448;2023-04-25T07:57:44;99074.31;;;10.69;100.00
45357;BME280;31092;51.924;21.448;2023-04-25T08:00:09;99075.16;;;10.69;100.00
45357;BME280;31092;51.924;21.448;2023-04-25T08:02:35;99085.91;;;10.69;100.00
45357;BME280;31092;51.924;21.448;2023-04-25T08:05:01;99084.84;;;10.64;100.00
45357;BME280;31092;51.924;21.448;2023-04-25T08:07:26;99084.22;;;10.62;100.00
45357;BME280;31092;51.924;21.448;2023-04-25T08:09:52;99087.50;;;10.57;100.00
45357;BME280;31092;51.924;21.448;2023-04-25T08:12:17;99097.81;;;10.53;100.00
45357;BME280;31092;51.924;21.448;2023-04-25T08:14:42;99102.31;;;10.46;100.00
45357;BME280;31092;51.924;21.448;2023-04-25T08:17:08;99104.28;;;10.38;100.00
45357;BME280;31092;51.924;21.448;2023-04-25T08:19:33;99110.63;;;10.30;100.00
45357;BME280;31092;51.924;21.448;2023-04-25T08:21:58;99113.22;;;10.23;100.00
45357;BME280;31092;51.924;21.448;2023-04-25T08:24:24;99109.63;;;10.16;100.00
45357;BME280;31092;51.924;21.448;2023-04-25T08:26:49;99120.97;;;10.12;100.00
45357;BME280;31092;51.924;21.448;2023-04-25T08:29:15;99128.94;;;10.05;100.00
45357;BME280;31092;51.924;21.448;2023-04-25T08:31:40;99134.91;;;10.00;100.00
45357;BME280;31092;51.924;21.448;2023-04-25T08:34:05;99138.81;;;9.98;100.00
45357;BME280;31092;51.924;21.448;2023-04-25T08:36:31;99137.97;;;9.97;100.00
45357;BME280;31092;51.924;21.448;2023-04-25T08:38:57;99135.06;;;9.99;100.00
45357;BME280;31092;51.924;21.448;2023-04-25T08:41:22;99144.19;;;9.98;100.00
45357;BME280;31092;51.924;21.448;2023-04-25T08:43:48;99129.91;;;9.97;100.00
45357;BME280;31092;51.924;21.448;2023-04-25T08:46:13;99132.13;;;9.94;100.00
45357;BME280;31092;51.924;21.448;2023-04-25T08:48:42;99129.81;;;9.91;100.00
45357;BME280;31092;51.924;21.448;2023-04-25T08:51:07;99137.44;;;9.87;100.00
45357;BME280;31092;51.924;21.448;2023-04-25T08:53:35;99134.75;;;9.87;100.00
45357;BME280;31092;51.924;21.448;2023-04-25T08:56:01;99141.97;;;9.87;100.00
45357;BME280;31092;51.924;21.448;2023-04-25T08:58:27;99148.38;;;9.86;100.00
45357;BME280;31092;51.924;21.448;2023-04-25T09:00:52;99152.06;;;9.84;100.00
45357;BME280;31092;51.924;21.448;2023-04-25T09:03:18;99154.78;;;9.84;100.00
45357;BME280;31092;51.924;21.448;2023-04-25T09:05:43;99151.00;;;9.79;100.00
45357;BME280;31092;51.924;21.448;2023-04-25T09:08:09;99151.53;;;9.74;100.00
45357;BME280;31092;51.924;21.448;2023-04-25T09:10:34;99154.78;;;9.70;100.00
45357;BME280;31092;51.924;21.448;2023-04-25T09:13:07;99160.81;;;9.72;100.00
45357;BME280;31092;51.924;21.448;2023-04-25T09:15:51;99156.44;;;9.71;100.00
45357;BME280;31092;51.924;21.448;2023-04-25T09:18:27;99144.69;;;9.72;100.00
45357;BME280;31092;51.924;21.448;2023-04-25T09:21:14;99150.44;;;9.69;100.00
45357;BME280;31092;51.924;21.448;2023-04-25T09:23:45;99148.38;;;9.71;100.00
45357;BME280;31092;51.924;21.448;2023-04-25T09:26:15;99148.38;;;9.71;100.00
45357;BME280;31092;51.924;21.448;2023-04-25T09:28:42;99150.69;;;9.74;100.00
45357;BME280;31092;51.924;21.448;2023-04-25T09:31:09;99156.44;;;9.71;100.00
45357;BME280;31092;51.924;21.448;2023-04-25T09:33:35;99155.00;;;9.68;100.00
45357;BME280;31092;51.924;21.448;2023-04-25T09:36:04;99164.06;;;9.67;100.00
45357;BME280;31092;51.924;21.448;2023-04-25T09:38:31;99165.09;;;9.66;100.00
45357;BME280;31092;51.924;21.448;2023-04-25T09:40:57;99174.53;;;9.62;100.00
45357;BME280;31092;51.924;21.448;2023-04-25T09:43:23;99175.75;;;9.59;100.00
45357;BME280;31092;51.924;21.448;2023-04-25T09:45:49;99168.59;;;9.52;100.00
45357;BME280;31092;51.924;21.448;2023-04-25T09:48:19;99166.66;;;9.46;100.00
45357;BME280;31092;51.924;21.448;2023-04-25T09:50:47;99175.84;;;9.37;100.00
45357;BME280;31092;51.924;21.448;2023-04-25T09:53:28;99176.56;;;9.30;100.00
45357;BME280;31092;51.924;21.448;2023-04-25T09:55:53;99178.78;;;9.27;100.00
45357;BME280;31092;51.924;21.448;2023-04-25T09:58:21;99177.66;;;9.21;100.00
45357;BME280;31092;51.924;21.448;2023-04-25T10:00:48;99183.78;;;9.15;100.00
45357;BME280;31092;51.924;21.448;2023-04-25T10:03:14;99183.09;;;9.13;100.00
45357;BME280;31092;51.924;21.448;2023-04-25T10:05:40;99188.00;;;9.09;100.00
45357;BME280;31092;51.924;21.448;2023-04-25T10:08:06;99181.13;;;9.07;100.00
45357;BME280;31092;51.924;21.448;2023-04-25T10:10:33;99182.16;;;9.06;100.00
45357;BME280;31092;51.924;21.448;2023-04-25T10:13:02;99187.72;;;9.04;100.00
45357;BME280;31092;51.924;21.448;2023-04-25T10:15:28;99182.38;;;9.04;100.00
45357;BME280;31092;51.924;21.448;2023-04-25T10:17:54;99187.72;;;9.04;100.00
45357;BME280;31092;51.924;21.448;2023-04-25T10:20:20;99188.38;;;9.06;100.00
45357;BME280;31092;51.924;21.448;2023-04-25T10:22:46;99185.31;;;9.09;100.00
45357;BME280;31092;51.924;21.448;2023-04-25T10:25:13;99194.22;;;9.10;100.00
45357;BME280;31092;51.924;21.448;2023-04-25T10:27:39;99182.63;;;9.09;100.00
45357;BME280;31092;51.924;21.448;2023-04-25T10:30:14;99192.34;;;9.10;100.00
45357;BME280;31092;51.924;21.448;2023-04-25T10:32:43;99191.38;;;9.11;100.00
45357;BME280;31092;51.924;21.448;2023-04-25T10:37:37;99194.41;;;9.08;100.00
45357;BME280;31092;51.924;21.448;2023-04-25T10:40:08;99197.44;;;9.05;100.00
45357;BME280;31092;51.924;21.448;2023-04-25T10:42:34;99188.56;;;9.05;100.00
45357;BME280;31092;51.924;21.448;2023-04-25T10:45:00;99188.56;;;9.05;100.00
45357;BME280;31092;51.924;21.448;2023-04-25T10:47:34;99194.41;;;9.08;100.00
45357;BME280;31092;51.924;21.448;2023-04-25T10:50:04;99202.63;;;9.07;100.00
45357;BME280;31092;51.924;21.448;2023-04-25T10:52:30;99197.66;;;9.04;100.00
45357;BME280;31092;51.924;21.448;2023-04-25T10:54:58;99203.03;;;9.04;100.00
45357;BME280;31092;51.924;21.448;2023-04-25T10:57:39;99203.84;;;9.04;100.00
45357;BME280;31092;51.924;21.448;2023-04-25T11:00:06;99206.34;;;9.06;100.00
45357;BME280;31092;51.924;21.448;2023-04-25T11:02:43;99202.81;;;9.05;100.00
45357;BME280;31092;51.924;21.448;2023-04-25T11:05:10;99208.75;;;9.01;100.00
45357;BME280;31092;51.924;21.448;2023-04-25T11:07:42;99210.78;;;8.99;100.00
45357;BME280;31092;51.924;21.448;2023-04-25T11:10:09;99205.94;;;8.94;100.00
45357;BME280;31092;51.924;21.448;2023-04-25T11:12:34;99205.75;;;8.96;100.00
45357;BME280;31092;51.924;21.448;2023-04-25T11:15:06;99205.41;;;8.99;100.00
45357;BME280;31092;51.924;21.448;2023-04-25T11:17:32;99207.72;;;9.02;100.00
45357;BME280;31092;51.924;21.448;2023-04-25T11:19:58;99208.28;;;8.97;100.00
45357;BME280;31092;51.924;21.448;2023-04-25T11:22:23;99204.75;;;8.97;100.00
45357;BME280;31092;51.924;21.448;2023-04-25T11:24:49;99204.56;;;8.98;100.00
45357;BME280;31092;51.924;21.448;2023-04-25T11:27:15;99205.41;;;8.99;100.00
45357;BME280;31092;51.924;21.448;2023-04-25T11:29:41;99212.44;;;9.00;100.00
45357;BME280;31092;51.924;21.448;2023-04-25T11:32:06;99209.59;;;9.01;100.00
45357;BME280;31092;51.924;21.448;2023-04-25T11:34:33;99212.91;;;9.03;100.00
45357;BME280;31092;51.924;21.448;2023-04-25T11:36:59;99210.06;;;9.05;100.00
45357;BME280;31092;51.924;21.448;2023-04-25T11:39:25;99215.91;;;9.08;100.00
45357;BME280;31092;51.924;21.448;2023-04-25T11:41:51;99208.78;;;9.16;100.00
45357;BME280;31092;51.924;21.448;2023-04-25T11:44:16;99213.13;;;9.17;100.00
45357;BME280;31092;51.924;21.448;2023-04-25T11:46:42;99212.78;;;9.20;100.00
45357;BME280;31092;51.924;21.448;2023-04-25T11:49:08;99210.81;;;9.14;100.00
45357;BME280;31092;51.924;21.448;2023-04-25T11:54:05;99204.59;;;9.13;100.00
45357;BME280;31092;51.924;21.448;2023-04-25T11:56:31;99204.97;;;9.10;100.00
45357;BME280;31092;51.924;21.448;2023-04-25T11:59:00;99205.03;;;9.02;100.00
45357;BME280;31092;51.924;21.448;2023-04-25T12:01:29;99208.09;;;8.99;100.00
45357;BME280;31092;51.924;21.448;2023-04-25T12:03:55;99209.94;;;8.98;100.00
45357;BME280;31092;51.924;21.448;2023-04-25T12:06:20;99204.56;;;8.98;100.00
45357;BME280;31092;51.924;21.448;2023-04-25T12:08:59;99205.75;;;8.96;100.00
45357;BME280;31092;51.924;21.448;2023-04-25T12:11:24;99207.06;;;9.00;100.00
45357;BME280;31092;51.924;21.448;2023-04-25T12:13:51;99201.53;;;9.01;100.00
45357;BME280;31092;51.924;21.448;2023-04-25T12:16:17;99203.84;;;9.04;100.00
45357;BME280;31092;51.924;21.448;2023-04-25T12:18:42;99202.63;;;9.07;100.00
45357;BME280;31092;51.924;21.448;2023-04-25T12:21:07;99207.16;;;9.06;100.00
45357;BME280;31092;51.924;21.448;2023-04-25T12:23:34;99202.28;;;9.10;100.00
45357;BME280;31092;51.924;21.448;2023-04-25T12:26:03;99191.63;;;9.17;100.00
45357;BME280;31092;51.924;21.448;2023-04-25T12:28:28;99195.63;;;9.21;100.00
45357;BME280;31092;51.924;21.448;2023-04-25T12:31:03;99190.19;;;9.29;100.00
45357;BME280;31092;51.924;21.448;2023-04-25T12:33:29;99192.13;;;9.35;100.00
45357;BME280;31092;51.924;21.448;2023-04-25T12:35:55;99189.53;;;9.42;100.00
45357;BME280;31092;51.924;21.448;2023-04-25T12:38:24;99191.69;;;9.46;100.00
45357;BME280;31092;51.924;21.448;2023-04-25T12:40:49;99185.94;;;9.49;100.00
45357;BME280;31092;51.924;21.448;2023-04-25T12:43:15;99185.56;;;9.52;100.00
45357;BME280;31092;51.924;21.448;2023-04-25T12:45:40;99186.22;;;9.54;100.00
45357;BME280;31092;51.924;21.448;2023-04-25T12:48:05;99180.03;;;9.54;100.00
45357;BME280;31092;51.924;21.448;2023-04-25T12:50:31;99185.56;;;9.52;100.00